Casper, WY

4:27 AM MDT on March 31, 2015 (GMT -0600)
Casper Mountain Foothills | | Change Station
CLOSE
Current Station
Personal Weather Station
Location: Casper, WY
Elevation: 5334 ft
Nearby Weather Stations
Active Advisory: Fire Weather Warning

Elev 5334 ft 42.83 °N, 106.31 °W | Updated 47 seconds ago

Clear
Clear
35.5 °F
Feels Like 36 °F
N
0.0
Wind Variable Wind from SW
Gusts 0.0 mph

Today
High -- | Low -- °F
--% Chance of Precip.
Yesterday
High -- | Low -- °F
Precip. -- in
6:49 AM 7:30 PM
Waxing Gibbous, 86% visible
Pressure 29.96 in
Visibility 10.0 miles
Clouds Clear
Windchill 36 °F
Dew Point 19 °F
Humidity 50%
Rainfall 0.00 in
Snow Depth Not available.
UV 0 out of 12
Pollen 10.40 out of 12
Air Quality Not available.
Flu Activity Not available.
METAR KCPR 310953Z AUTO 26007KT 10SM CLR 01/M07 A3004 RMK AO2 SLP144 T00111072

More Conditions Fewer Conditions

Pressure 29.96 in
Visibility 10.0 miles
Clouds Clear
Windchill 36 °F
Dew Point 19 °F
Humidity 50%
Rainfall 0.00 in
Snow Depth Not available.
UV 0 out of 12
Pollen 10.40 out of 12
Air Quality Not available.
Flu Activity Not available.
METAR KCPR 310953Z AUTO 26007KT 10SM CLR 01/M07 A3004 RMK AO2 SLP144 T00111072

More Conditions Fewer Conditions

10-Day Weather Forecast

Almanac

Astronomy

Mar. 31, 2015 Rise Set
Actual Time
Civil Twilight
Nautical Twilight
Astronomical Twilight
Moon
Length of Visible Light
Length of Day
Tomorrow will be .
, % of the Moon is Illuminated

Today's Extremes

State Highs State Lows

Community

WunderPhotos

Upload Photos

1,809,736 photos uploaded!

WunderBlogs® & News

Nearby

Air Quality

  Air Quality AQ Index Pollutant
Not available.

Snow Depth

Station Depth Elevation

Earthquake Activity

City Distance Mag. Time & Date
Minimum magnitude displayed is 2.5.

Coastal Water Temperatures

Place Temperature

Stations

Nearby Weather Stations

Station Location Temp. Windchill Dew Point Humidity Wind Precip. Elev Updated Type
                   
Fire Weather Warning
Statement as of 2:45 AM MDT on March 31, 2015

... Red flag warning remains in effect from noon today to 9 PM MDT
this evening for wind and low relative humidity for fire weather
zone 280...

* affected area... fire weather zone 280.

* Winds... west 15 to 25 mph with gusts up to 35 mph.

* Relative humidity... as low as 11 percent.

* Impacts... residents in this area are advised not to conduct
any burning this afternoon... as any fire could rapidly spread
through fine fuels such as grasses and small vegetation.

Precautionary/preparedness actions...

A red flag warning means that critical fire weather conditions
are either occurring now... or will shortly. A combination of
strong winds... low relative humidity... and warm temperatures can
contribute to extreme fire behavior.